sensor_id;sensor_type;location;lat;lon;timestamp;temperature;humidity
30865;DHT22;17574;49.418;11.038;2023-04-25T00:14:28;10.30;28.00
30865;DHT22;17574;49.418;11.038;2023-04-25T00:26:43;10.30;28.00
30865;DHT22;17574;49.418;11.038;2023-04-25T00:43:53;10.20;38.50
30865;DHT22;17574;49.418;11.038;2023-04-25T01:25:34;9.90;43.70
30865;DHT22;17574;49.418;11.038;2023-04-25T01:40:17;9.90;47.90
30865;DHT22;17574;49.418;11.038;2023-04-25T01:45:12;9.80;44.00
30865;DHT22;17574;49.418;11.038;2023-04-25T02:24:33;9.70;49.50
30865;DHT22;17574;49.418;11.038;2023-04-25T02:27:01;9.70;50.00
30865;DHT22;17574;49.418;11.038;2023-04-25T02:29:27;9.70;49.50
30865;DHT22;17574;49.418;11.038;2023-04-25T02:34:21;9.70;49.30
30865;DHT22;17574;49.418;11.038;2023-04-25T02:44:10;9.70;50.00
30865;DHT22;17574;49.418;11.038;2023-04-25T03:20:58;9.50;56.50
30865;DHT22;17574;49.418;11.038;2023-04-25T03:23:24;9.50;57.20
30865;DHT22;17574;49.418;11.038;2023-04-25T03:28:18;9.30;60.00
30865;DHT22;17574;49.418;11.038;2023-04-25T03:30:45;9.30;60.00
30865;DHT22;17574;49.418;11.038;2023-04-25T03:35:38;9.50;56.70
30865;DHT22;17574;49.418;11.038;2023-04-25T03:45:26;9.50;54.00
30865;DHT22;17574;49.418;11.038;2023-04-25T03:50:20;9.40;53.10
30865;DHT22;17574;49.418;11.038;2023-04-25T03:55:13;9.40;53.80
30865;DHT22;17574;49.418;11.038;2023-04-25T03:57:40;9.20;55.10
30865;DHT22;17574;49.418;11.038;2023-04-25T04:07:30;9.30;53.60
30865;DHT22;17574;49.418;11.038;2023-04-25T04:09:59;9.20;54.80
30865;DHT22;17574;49.418;11.038;2023-04-25T04:14:53;9.30;52.50
30865;DHT22;17574;49.418;11.038;2023-04-25T05:06:30;9.50;47.50
30865;DHT22;17574;49.418;11.038;2023-04-25T05:28:40;9.90;39.20
30865;DHT22;17574;49.418;11.038;2023-04-25T05:33:37;10.00;38.30
30865;DHT22;17574;49.418;11.038;2023-04-25T05:36:03;10.10;39.60
30865;DHT22;17574;49.418;11.038;2023-04-25T05:38:30;10.10;38.40
30865;DHT22;17574;49.418;11.038;2023-04-25T05:43:27;10.10;38.40
30865;DHT22;17574;49.418;11.038;2023-04-25T05:45:53;10.10;38.40
30865;DHT22;17574;49.418;11.038;2023-04-25T05:48:20;10.10;39.00
30865;DHT22;17574;49.418;11.038;2023-04-25T05:50:47;10.10;38.40
30865;DHT22;17574;49.418;11.038;2023-04-25T05:53:13;10.20;38.50
30865;DHT22;17574;49.418;11.038;2023-04-25T05:55:40;10.20;39.10
30865;DHT22;17574;49.418;11.038;2023-04-25T05:58:11;10.20;38.50
30865;DHT22;17574;49.418;11.038;2023-04-25T06:00:37;10.30;38.60
30865;DHT22;17574;49.418;11.038;2023-04-25T06:03:04;10.30;37.40
30865;DHT22;17574;49.418;11.038;2023-04-25T06:05:31;10.30;36.50
30865;DHT22;17574;49.418;11.038;2023-04-25T06:07:58;10.30;36.80
30865;DHT22;17574;49.418;11.038;2023-04-25T06:10:25;10.30;38.60
30865;DHT22;17574;49.418;11.038;2023-04-25T06:12:52;10.30;38.70
30865;DHT22;17574;49.418;11.038;2023-04-25T06:15:18;10.30;39.20
30865;DHT22;17574;49.418;11.038;2023-04-25T06:17:48;10.30;39.20
30865;DHT22;17574;49.418;11.038;2023-04-25T06:20:15;10.30;38.60
30865;DHT22;17574;49.418;11.038;2023-04-25T06:22:42;10.30;38.60
30865;DHT22;17574;49.418;11.038;2023-04-25T06:25:08;10.30;39.20
30865;DHT22;17574;49.418;11.038;2023-04-25T06:27:35;10.30;38.60
30865;DHT22;17574;49.418;11.038;2023-04-25T06:30:02;10.30;39.20
30865;DHT22;17574;49.418;11.038;2023-04-25T06:32:29;10.30;38.60
30865;DHT22;17574;49.418;11.038;2023-04-25T06:34:56;10.20;42.50
30865;DHT22;17574;49.418;11.038;2023-04-25T06:42:17;10.20;43.70
30865;DHT22;17574;49.418;11.038;2023-04-25T06:44:44;10.20;44.40
30865;DHT22;17574;49.418;11.038;2023-04-25T06:47:10;10.20;44.00
30865;DHT22;17574;49.418;11.038;2023-04-25T06:49:37;10.10;44.80
30865;DHT22;17574;49.418;11.038;2023-04-25T06:52:03;10.10;43.90
30865;DHT22;17574;49.418;11.038;2023-04-25T06:56:57;10.10;42.90
30865;DHT22;17574;49.418;11.038;2023-04-25T06:59:24;10.10;44.90
30865;DHT22;17574;49.418;11.038;2023-04-25T07:01:50;10.10;43.50
30865;DHT22;17574;49.418;11.038;2023-04-25T07:04:17;10.00;46.20
30865;DHT22;17574;49.418;11.038;2023-04-25T07:06:44;10.10;49.30
30865;DHT22;17574;49.418;11.038;2023-04-25T07:09:11;10.10;49.30
30865;DHT22;17574;49.418;11.038;2023-04-25T07:11:39;10.20;48.20
30865;DHT22;17574;49.418;11.038;2023-04-25T07:14:05;10.20;49.40
30865;DHT22;17574;49.418;11.038;2023-04-25T07:18:59;10.50;38.80
30865;DHT22;17574;49.418;11.038;2023-04-25T07:21:26;10.50;38.20
30865;DHT22;17574;49.418;11.038;2023-04-25T07:23:52;10.60;34.50
30865;DHT22;17574;49.418;11.038;2023-04-25T07:26:19;10.70;33.40
30865;DHT22;17574;49.418;11.038;2023-04-25T07:28:46;10.90;31.10
30865;DHT22;17574;49.418;11.038;2023-04-25T07:31:16;11.10;29.10
30865;DHT22;17574;49.418;11.038;2023-04-25T07:33:44;11.30;23.60
30865;DHT22;17574;49.418;11.038;2023-04-25T07:36:14;11.40;20.30
30865;DHT22;17574;49.418;11.038;2023-04-25T07:38:41;11.40;18.50
30865;DHT22;17574;49.418;11.038;2023-04-25T07:41:08;11.10;18.00
30865;DHT22;17574;49.418;11.038;2023-04-25T07:43:34;11.10;18.20
30865;DHT22;17574;49.418;11.038;2023-04-25T07:46:01;11.00;18.20
30865;DHT22;17574;49.418;11.038;2023-04-25T07:48:29;10.90;19.40
30865;DHT22;17574;49.418;11.038;2023-04-25T07:50:56;10.80;23.20
30865;DHT22;17574;49.418;11.038;2023-04-25T07:53:22;10.70;23.90
30865;DHT22;17574;49.418;11.038;2023-04-25T07:55:49;10.60;26.90
30865;DHT22;17574;49.418;11.038;2023-04-25T07:58:16;10.60;26.30
30865;DHT22;17574;49.418;11.038;2023-04-25T08:00:48;10.40;28.50
30865;DHT22;17574;49.418;11.038;2023-04-25T08:03:14;10.40;29.70
30865;DHT22;17574;49.418;11.038;2023-04-25T08:05:41;10.40;30.70
30865;DHT22;17574;49.418;11.038;2023-04-25T08:08:08;10.40;34.00
30865;DHT22;17574;49.418;11.038;2023-04-25T08:10:35;10.40;34.60
30865;DHT22;17574;49.418;11.038;2023-04-25T08:13:01;10.30;34.40
30865;DHT22;17574;49.418;11.038;2023-04-25T08:15:28;10.20;33.50
30865;DHT22;17574;49.418;11.038;2023-04-25T08:17:56;10.20;32.70
30865;DHT22;17574;49.418;11.038;2023-04-25T08:20:22;10.30;33.60
30865;DHT22;17574;49.418;11.038;2023-04-25T08:22:49;10.30;36.50
30865;DHT22;17574;49.418;11.038;2023-04-25T08:25:16;10.40;33.70
30865;DHT22;17574;49.418;11.038;2023-04-25T08:27:42;10.50;31.40
30865;DHT22;17574;49.418;11.038;2023-04-25T08:30:09;10.60;37.40
30865;DHT22;17574;49.418;11.038;2023-04-25T08:32:36;10.90;34.40
30865;DHT22;17574;49.418;11.038;2023-04-25T08:35:05;10.80;28.90
30865;DHT22;17574;49.418;11.038;2023-04-25T08:37:32;11.00;28.10
30865;DHT22;17574;49.418;11.038;2023-04-25T08:39:59;10.90;23.00
30865;DHT22;17574;49.418;11.038;2023-04-25T08:42:26;11.40;21.50
30865;DHT22;17574;49.418;11.038;2023-04-25T08:44:53;11.80;23.30
30865;DHT22;17574;49.418;11.038;2023-04-25T08:47:21;12.20;23.80
30865;DHT22;17574;49.418;11.038;2023-04-25T08:49:48;12.60;19.80
30865;DHT22;17574;49.418;11.038;2023-04-25T08:52:16;13.40;13.00
30865;DHT22;17574;49.418;11.038;2023-04-25T08:54:47;14.60;4.70
30865;DHT22;17574;49.418;11.038;2023-04-25T08:57:15;15.20;1.00
30865;DHT22;17574;49.418;11.038;2023-04-25T08:59:42;15.30;1.00
30865;DHT22;17574;49.418;11.038;2023-04-25T09:02:12;15.40;1.00
30865;DHT22;17574;49.418;11.038;2023-04-25T09:04:44;15.30;1.00
30865;DHT22;17574;49.418;11.038;2023-04-25T09:07:11;15.50;1.00
30865;DHT22;17574;49.418;11.038;2023-04-25T09:09:37;15.50;1.00
30865;DHT22;17574;49.418;11.038;2023-04-25T09:12:04;15.10;1.00
30865;DHT22;17574;49.418;11.038;2023-04-25T09:14:31;15.30;1.00
30865;DHT22;17574;49.418;11.038;2023-04-25T09:16:59;14.20;1.00
30865;DHT22;17574;49.418;11.038;2023-04-25T09:19:33;13.90;1.00
30865;DHT22;17574;49.418;11.038;2023-04-25T09:22:06;13.60;1.00
30865;DHT22;17574;49.418;11.038;2023-04-25T09:24:43;13.20;2.50
30865;DHT22;17574;49.418;11.038;2023-04-25T09:27:11;13.20;3.20
30865;DHT22;17574;49.418;11.038;2023-04-25T09:29:39;13.70;5.50
30865;DHT22;17574;49.418;11.038;2023-04-25T09:34:42;17.00;1.00
30865;DHT22;17574;49.418;11.038;2023-04-25T09:37:09;19.70;1.00
30865;DHT22;17574;49.418;11.038;2023-04-25T09:39:38;21.10;1.00
30865;DHT22;17574;49.418;11.038;2023-04-25T09:42:05;21.60;1.00
30865;DHT22;17574;49.418;11.038;2023-04-25T09:44:32;23.10;1.00
30865;DHT22;17574;49.418;11.038;2023-04-25T09:46:58;24.40;1.00
30865;DHT22;17574;49.418;11.038;2023-04-25T09:49:25;24.10;1.00
30865;DHT22;17574;49.418;11.038;2023-04-25T09:51:54;26.00;1.00
30865;DHT22;17574;49.418;11.038;2023-04-25T09:54:22;25.00;1.00
30865;DHT22;17574;49.418;11.038;2023-04-25T09:56:49;23.20;1.00
30865;DHT22;17574;49.418;11.038;2023-04-25T09:59:17;21.40;1.00
30865;DHT22;17574;49.418;11.038;2023-04-25T10:01:45;19.60;1.00
30865;DHT22;17574;49.418;11.038;2023-04-25T10:04:11;19.20;1.00
30865;DHT22;17574;49.418;11.038;2023-04-25T10:06:39;18.40;1.00
30865;DHT22;17574;49.418;11.038;2023-04-25T10:09:07;17.50;1.00
30865;DHT22;17574;49.418;11.038;2023-04-25T10:11:34;17.30;1.00
30865;DHT22;17574;49.418;11.038;2023-04-25T10:14:01;17.10;1.00
30865;DHT22;17574;49.418;11.038;2023-04-25T10:16:28;17.80;1.00
30865;DHT22;17574;49.418;11.038;2023-04-25T10:18:55;17.80;1.00
30865;DHT22;17574;49.418;11.038;2023-04-25T10:21:22;17.10;1.00
30865;DHT22;17574;49.418;11.038;2023-04-25T10:23:49;16.90;1.00
30865;DHT22;17574;49.418;11.038;2023-04-25T10:26:16;16.50;1.00
30865;DHT22;17574;49.418;11.038;2023-04-25T10:28:56;17.30;1.00
30865;DHT22;17574;49.418;11.038;2023-04-25T10:31:24;19.40;1.00
30865;DHT22;17574;49.418;11.038;2023-04-25T10:33:51;20.20;1.00
30865;DHT22;17574;49.418;11.038;2023-04-25T10:36:18;20.10;1.00
30865;DHT22;17574;49.418;11.038;2023-04-25T10:38:45;20.00;1.00
30865;DHT22;17574;49.418;11.038;2023-04-25T10:41:12;18.60;1.00
30865;DHT22;17574;49.418;11.038;2023-04-25T10:43:43;18.80;1.00
30865;DHT22;17574;49.418;11.038;2023-04-25T10:48:44;17.80;1.00
30865;DHT22;17574;49.418;11.038;2023-04-25T10:51:15;17.30;1.00
30865;DHT22;17574;49.418;11.038;2023-04-25T10:53:43;17.40;1.00
30865;DHT22;17574;49.418;11.038;2023-04-25T10:56:10;18.90;1.00
30865;DHT22;17574;49.418;11.038;2023-04-25T10:58:46;20.90;1.00
30865;DHT22;17574;49.418;11.038;2023-04-25T11:01:19;22.80;1.00
30865;DHT22;17574;49.418;11.038;2023-04-25T11:03:46;23.30;1.00
30865;DHT22;17574;49.418;11.038;2023-04-25T11:06:29;22.80;1.00
30865;DHT22;17574;49.418;11.038;2023-04-25T11:08:59;21.50;1.00
30865;DHT22;17574;49.418;11.038;2023-04-25T11:11:26;20.40;1.00
30865;DHT22;17574;49.418;11.038;2023-04-25T11:13:53;19.30;1.00
30865;DHT22;17574;49.418;11.038;2023-04-25T11:16:19;18.80;1.00
30865;DHT22;17574;49.418;11.038;2023-04-25T11:18:56;19.00;1.00
30865;DHT22;17574;49.418;11.038;2023-04-25T11:21:24;20.20;1.00
30865;DHT22;17574;49.418;11.038;2023-04-25T11:23:53;20.80;1.00
30865;DHT22;17574;49.418;11.038;2023-04-25T11:26:20;20.30;1.00
30865;DHT22;17574;49.418;11.038;2023-04-25T11:28:47;19.70;1.00
30865;DHT22;17574;49.418;11.038;2023-04-25T11:31:15;18.90;1.00
30865;DHT22;17574;49.418;11.038;2023-04-25T11:33:41;18.20;1.00
30865;DHT22;17574;49.418;11.038;2023-04-25T11:36:09;17.50;1.00
30865;DHT22;17574;49.418;11.038;2023-04-25T11:38:36;17.40;1.00
30865;DHT22;17574;49.418;11.038;2023-04-25T11:41:03;17.70;1.00
30865;DHT22;17574;49.418;11.038;2023-04-25T11:43:29;18.00;1.00
30865;DHT22;17574;49.418;11.038;2023-04-25T11:45:56;16.50;1.00
30865;DHT22;17574;49.418;11.038;2023-04-25T11:48:23;17.10;1.00
30865;DHT22;17574;49.418;11.038;2023-04-25T11:50:53;17.10;1.00
30865;DHT22;17574;49.418;11.038;2023-04-25T11:53:19;17.40;1.00
30865;DHT22;17574;49.418;11.038;2023-04-25T11:55:46;18.10;1.00
30865;DHT22;17574;49.418;11.038;2023-04-25T11:58:14;19.30;1.00
30865;DHT22;17574;49.418;11.038;2023-04-25T12:00:41;20.30;1.00
30865;DHT22;17574;49.418;11.038;2023-04-25T12:03:17;21.20;1.00
30865;DHT22;17574;49.418;11.038;2023-04-25T12:05:44;21.60;1.00
30865;DHT22;17574;49.418;11.038;2023-04-25T12:08:12;21.30;1.00
30865;DHT22;17574;49.418;11.038;2023-04-25T12:10:40;21.60;1.00
30865;DHT22;17574;49.418;11.038;2023-04-25T12:13:20;20.90;1.00
30865;DHT22;17574;49.418;11.038;2023-04-25T12:15:46;20.60;1.00
30865;DHT22;17574;49.418;11.038;2023-04-25T12:18:14;21.00;1.00
30865;DHT22;17574;49.418;11.038;2023-04-25T12:20:41;21.10;1.00
30865;DHT22;17574;49.418;11.038;2023-04-25T12:23:08;21.00;1.00
30865;DHT22;17574;49.418;11.038;2023-04-25T12:25:38;20.70;1.00
30865;DHT22;17574;49.418;11.038;2023-04-25T12:28:19;20.60;1.00
30865;DHT22;17574;49.418;11.038;2023-04-25T12:33:18;20.30;1.00
30865;DHT22;17574;49.418;11.038;2023-04-25T12:35:45;22.50;1.00
30865;DHT22;17574;49.418;11.038;2023-04-25T12:38:19;20.10;1.00
30865;DHT22;17574;49.418;11.038;2023-04-25T12:40:46;19.90;1.00
30865;DHT22;17574;49.418;11.038;2023-04-25T12:43:12;20.60;1.00
30865;DHT22;17574;49.418;11.038;2023-04-25T12:45:39;20.00;1.00
30865;DHT22;17574;49.418;11.038;2023-04-25T12:48:06;19.80;1.00
30865;DHT22;17574;49.418;11.038;2023-04-25T12:50:33;19.30;1.00
30865;DHT22;17574;49.418;11.038;2023-04-25T12:52:59;18.90;1.00
30865;DHT22;17574;49.418;11.038;2023-04-25T12:55:26;18.40;1.00
30865;DHT22;17574;49.418;11.038;2023-04-25T12:57:53;18.00;1.00
30865;DHT22;17574;49.418;11.038;2023-04-25T13:00:19;17.70;1.00
30865;DHT22;17574;49.418;11.038;2023-04-25T13:02:46;17.50;1.00
30865;DHT22;17574;49.418;11.038;2023-04-25T13:05:13;17.20;1.00
30865;DHT22;17574;49.418;11.038;2023-04-25T13:07:40;17.10;1.00
30865;DHT22;17574;49.418;11.038;2023-04-25T13:10:07;16.90;1.00
30865;DHT22;17574;49.418;11.038;2023-04-25T13:12:34;16.60;1.00
30865;DHT22;17574;49.418;11.038;2023-04-25T13:15:00;16.60;1.00
30865;DHT22;17574;49.418;11.038;2023-04-25T13:17:27;16.60;1.00
30865;DHT22;17574;49.418;11.038;2023-04-25T13:19:54;16.90;1.00
30865;DHT22;17574;49.418;11.038;2023-04-25T13:22:21;17.10;1.00
30865;DHT22;17574;49.418;11.038;2023-04-25T13:24:47;17.10;1.00
30865;DHT22;17574;49.418;11.038;2023-04-25T13:27:14;17.10;1.00
30865;DHT22;17574;49.418;11.038;2023-04-25T13:29:40;19.00;1.00
30865;DHT22;17574;49.418;11.038;2023-04-25T13:32:08;17.00;1.00
30865;DHT22;17574;49.418;11.038;2023-04-25T13:34:35;16.70;1.00
30865;DHT22;17574;49.418;11.038;2023-04-25T13:37:02;16.50;1.00
30865;DHT22;17574;49.418;11.038;2023-04-25T13:39:28;16.50;1.00
30865;DHT22;17574;49.418;11.038;2023-04-25T13:41:55;16.40;1.00
30865;DHT22;17574;49.418;11.038;2023-04-25T13:44:22;16.70;1.00
30865;DHT22;17574;49.418;11.038;2023-04-25T13:46:49;16.20;1.00
30865;DHT22;17574;49.418;11.038;2023-04-25T13:49:15;16.30;1.00
30865;DHT22;17574;49.418;11.038;2023-04-25T13:51:42;16.50;1.00
30865;DHT22;17574;49.418;11.038;2023-04-25T13:54:09;16.50;1.00
30865;DHT22;17574;49.418;11.038;2023-04-25T13:56:36;16.30;1.00
30865;DHT22;17574;49.418;11.038;2023-04-25T13:59:02;16.10;1.00
30865;DHT22;17574;49.418;11.038;2023-04-25T14:01:29;15.90;1.00
30865;DHT22;17574;49.418;11.038;2023-04-25T14:03:57;15.60;1.00
30865;DHT22;17574;49.418;11.038;2023-04-25T14:06:24;15.20;1.00
30865;DHT22;17574;49.418;11.038;2023-04-25T14:08:51;14.80;1.00
30865;DHT22;17574;49.418;11.038;2023-04-25T14:11:18;14.70;1.00
30865;DHT22;17574;49.418;11.038;2023-04-25T14:13:45;14.80;1.00
30865;DHT22;17574;49.418;11.038;2023-04-25T14:16:11;14.80;1.00
30865;DHT22;17574;49.418;11.038;2023-04-25T14:18:38;14.80;1.00
30865;DHT22;17574;49.418;11.038;2023-04-25T14:21:05;14.80;1.00
30865;DHT22;17574;49.418;11.038;2023-04-25T14:23:31;14.80;1.00
30865;DHT22;17574;49.418;11.038;2023-04-25T14:25:58;14.80;1.00
30865;DHT22;17574;49.418;11.038;2023-04-25T14:28:25;14.80;1.00
30865;DHT22;17574;49.418;11.038;2023-04-25T14:30:52;14.80;1.00
30865;DHT22;17574;49.418;11.038;2023-04-25T14:33:18;14.50;1.00
30865;DHT22;17574;49.418;11.038;2023-04-25T14:35:45;14.40;1.00
30865;DHT22;17574;49.418;11.038;2023-04-25T14:38:12;14.20;1.00
30865;DHT22;17574;49.418;11.038;2023-04-25T14:40:38;14.00;1.00
30865;DHT22;17574;49.418;11.038;2023-04-25T14:45:33;13.90;1.00
30865;DHT22;17574;49.418;11.038;2023-04-25T14:47:59;13.80;1.00
30865;DHT22;17574;49.418;11.038;2023-04-25T14:50:27;13.70;1.00
30865;DHT22;17574;49.418;11.038;2023-04-25T14:52:53;13.50;1.00
30865;DHT22;17574;49.418;11.038;2023-04-25T14:57:50;13.50;1.00
30865;DHT22;17574;49.418;11.038;2023-04-25T15:02:46;13.60;1.00
30865;DHT22;17574;49.418;11.038;2023-04-25T15:42:11;14.10;1.00
30865;DHT22;17574;49.418;11.038;2023-04-25T15:54:26;14.20;1.00
30865;DHT22;17574;49.418;11.038;2023-04-25T16:01:47;14.30;1.00
30865;DHT22;17574;49.418;11.038;2023-04-25T16:06:41;14.10;1.00
30865;DHT22;17574;49.418;11.038;2023-04-25T16:11:35;14.00;1.00
30865;DHT22;17574;49.418;11.038;2023-04-25T16:28:46;13.40;1.00
30865;DHT22;17574;49.418;11.038;2023-04-25T16:31:12;13.30;1.00
30865;DHT22;17574;49.418;11.038;2023-04-25T16:33:39;13.20;1.00
30865;DHT22;17574;49.418;11.038;2023-04-25T16:38:33;13.10;1.00
30865;DHT22;17574;49.418;11.038;2023-04-25T16:40:59;13.10;1.00
30865;DHT22;17574;49.418;11.038;2023-04-25T16:45:53;13.00;1.00
30865;DHT22;17574;49.418;11.038;2023-04-25T16:50:50;12.80;1.00
30865;DHT22;17574;49.418;11.038;2023-04-25T16:53:18;13.00;1.00
30865;DHT22;17574;49.418;11.038;2023-04-25T16:58:12;12.90;1.00
30865;DHT22;17574;49.418;11.038;2023-04-25T17:00:40;12.90;1.00
30865;DHT22;17574;49.418;11.038;2023-04-25T17:03:07;12.80;1.00
30865;DHT22;17574;49.418;11.038;2023-04-25T17:05:34;12.70;1.00
30865;DHT22;17574;49.418;11.038;2023-04-25T17:08:01;12.60;1.00
30865;DHT22;17574;49.418;11.038;2023-04-25T17:10:29;12.70;1.00
30865;DHT22;17574;49.418;11.038;2023-04-25T17:12:56;12.50;1.00
30865;DHT22;17574;49.418;11.038;2023-04-25T17:20:17;12.20;1.00
30865;DHT22;17574;49.418;11.038;2023-04-25T17:22:43;12.10;1.00
30865;DHT22;17574;49.418;11.038;2023-04-25T17:25:10;12.10;1.00
30865;DHT22;17574;49.418;11.038;2023-04-25T17:27:37;12.10;1.00
30865;DHT22;17574;49.418;11.038;2023-04-25T17:30:04;12.10;1.00
30865;DHT22;17574;49.418;11.038;2023-04-25T17:32:31;11.90;1.00
30865;DHT22;17574;49.418;11.038;2023-04-25T17:34:57;11.90;1.00
30865;DHT22;17574;49.418;11.038;2023-04-25T17:37:25;11.90;1.00
30865;DHT22;17574;49.418;11.038;2023-04-25T17:39:54;11.90;1.00
30865;DHT22;17574;49.418;11.038;2023-04-25T17:42:20;11.90;1.00
30865;DHT22;17574;49.418;11.038;2023-04-25T17:44:47;11.90;1.00
30865;DHT22;17574;49.418;11.038;2023-04-25T17:47:14;11.80;1.00
30865;DHT22;17574;49.418;11.038;2023-04-25T17:49:41;11.90;1.00
30865;DHT22;17574;49.418;11.038;2023-04-25T17:52:08;11.70;1.00
30865;DHT22;17574;49.418;11.038;2023-04-25T17:54:34;11.70;1.00
30865;DHT22;17574;49.418;11.038;2023-04-25T17:57:01;11.60;1.00
30865;DHT22;17574;49.418;11.038;2023-04-25T17:59:28;11.50;1.00
30865;DHT22;17574;49.418;11.038;2023-04-25T18:01:54;11.50;1.00
30865;DHT22;17574;49.418;11.038;2023-04-25T18:04:22;11.50;1.00
30865;DHT22;17574;49.418;11.038;2023-04-25T18:06:48;11.50;1.00
30865;DHT22;17574;49.418;11.038;2023-04-25T18:09:15;11.50;1.00
30865;DHT22;17574;49.418;11.038;2023-04-25T18:14:17;11.50;1.00
30865;DHT22;17574;49.418;11.038;2023-04-25T18:19:12;11.40;1.00
30865;DHT22;17574;49.418;11.038;2023-04-25T18:21:50;11.30;1.00
30865;DHT22;17574;49.418;11.038;2023-04-25T18:26:47;11.30;1.00
30865;DHT22;17574;49.418;11.038;2023-04-25T18:41:49;11.00;1.00
30865;DHT22;17574;49.418;11.038;2023-04-25T18:46:53;10.90;1.00
30865;DHT22;17574;49.418;11.038;2023-04-25T18:54:17;10.90;1.00
30865;DHT22;17574;49.418;11.038;2023-04-25T18:56:44;10.90;1.00
30865;DHT22;17574;49.418;11.038;2023-04-25T19:01:39;10.90;1.00
30865;DHT22;17574;49.418;11.038;2023-04-25T19:06:35;10.70;1.00
30865;DHT22;17574;49.418;11.038;2023-04-25T19:09:01;10.80;1.00
30865;DHT22;17574;49.418;11.038;2023-04-25T19:18:52;10.60;1.00
30865;DHT22;17574;49.418;11.038;2023-04-25T19:21:20;10.70;1.00
30865;DHT22;17574;49.418;11.038;2023-04-25T19:45:50;10.60;1.00
30865;DHT22;17574;49.418;11.038;2023-04-25T19:48:17;10.60;1.00
30865;DHT22;17574;49.418;11.038;2023-04-25T19:58:04;10.50;1.00
30865;DHT22;17574;49.418;11.038;2023-04-25T20:02:59;10.50;1.00
30865;DHT22;17574;49.418;11.038;2023-04-25T20:07:53;10.40;1.00
30865;DHT22;17574;49.418;11.038;2023-04-25T20:12:47;10.30;1.00
30865;DHT22;17574;49.418;11.038;2023-04-25T20:22:37;10.20;1.00
30865;DHT22;17574;49.418;11.038;2023-04-25T20:47:18;9.80;1.00
30865;DHT22;17574;49.418;11.038;2023-04-25T20:49:45;10.40;1.00
30865;DHT22;17574;49.418;11.038;2023-04-25T20:52:12;9.60;1.00
30865;DHT22;17574;49.418;11.038;2023-04-25T20:54:39;9.50;1.00
30865;DHT22;17574;49.418;11.038;2023-04-25T20:57:06;9.50;1.00
30865;DHT22;17574;49.418;11.038;2023-04-25T20:59:33;9.50;1.00
30865;DHT22;17574;49.418;11.038;2023-04-25T21:02:00;9.40;1.70
30865;DHT22;17574;49.418;11.038;2023-04-25T21:04:26;9.40;4.00
30865;DHT22;17574;49.418;11.038;2023-04-25T21:06:54;9.50;6.10
30865;DHT22;17574;49.418;11.038;2023-04-25T21:14:16;9.60;4.10
30865;DHT22;17574;49.418;11.038;2023-04-25T21:21:38;9.50;2.10
30865;DHT22;17574;49.418;11.038;2023-04-25T21:33:53;9.40;4.90
30865;DHT22;17574;49.418;11.038;2023-04-25T21:38:47;9.40;5.20
30865;DHT22;17574;49.418;11.038;2023-04-25T21:46:07;9.20;5.80
30865;DHT22;17574;49.418;11.038;2023-04-25T21:48:48;9.20;4.80
30865;DHT22;17574;49.418;11.038;2023-04-25T21:51:16;9.20;6.20
30865;DHT22;17574;49.418;11.038;2023-04-25T21:53:43;9.10;7.20
30865;DHT22;17574;49.418;11.038;2023-04-25T21:56:09;9.50;10.30
30865;DHT22;17574;49.418;11.038;2023-04-25T21:58:37;8.80;9.90
30865;DHT22;17574;49.418;11.038;2023-04-25T22:01:04;8.80;10.80
30865;DHT22;17574;49.418;11.038;2023-04-25T22:03:30;8.80;10.10
30865;DHT22;17574;49.418;11.038;2023-04-25T22:05:58;8.80;11.70
30865;DHT22;17574;49.418;11.038;2023-04-25T22:08:24;8.80;11.70
30865;DHT22;17574;49.418;11.038;2023-04-25T22:15:45;8.80;9.40
30865;DHT22;17574;49.418;11.038;2023-04-25T22:18:13;8.80;11.60
30865;DHT22;17574;49.418;11.038;2023-04-25T22:20:41;8.80;11.20
30865;DHT22;17574;49.418;11.038;2023-04-25T22:23:09;8.80;12.20
30865;DHT22;17574;49.418;11.038;2023-04-25T22:33:00;8.80;10.10
30865;DHT22;17574;49.418;11.038;2023-04-25T22:35:27;8.80;11.20
30865;DHT22;17574;49.418;11.038;2023-04-25T22:45:15;8.60;12.20
30865;DHT22;17574;49.418;11.038;2023-04-25T23:07:34;8.20;18.30
30865;DHT22;17574;49.418;11.038;2023-04-25T23:10:01;8.10;18.90
30865;DHT22;17574;49.418;11.038;2023-04-25T23:12:28;8.00;18.70
30865;DHT22;17574;49.418;11.038;2023-04-25T23:14:54;8.00;18.70
30865;DHT22;17574;49.418;11.038;2023-04-25T23:17:21;7.90;18.60
30865;DHT22;17574;49.418;11.038;2023-04-25T23:19:48;7.90;18.60
30865;DHT22;17574;49.418;11.038;2023-04-25T23:22:14;7.80;18.60
30865;DHT22;17574;49.418;11.038;2023-04-25T23:24:41;7.80;19.30
30865;DHT22;17574;49.418;11.038;2023-04-25T23:27:08;7.80;19.10
30865;DHT22;17574;49.418;11.038;2023-04-25T23:29:34;7.70;19.80
30865;DHT22;17574;49.418;11.038;2023-04-25T23:32:01;7.70;19.30
30865;DHT22;17574;49.418;11.038;2023-04-25T23:34:28;7.70;18.50
30865;DHT22;17574;49.418;11.038;2023-04-25T23:36:55;7.60;19.20
30865;DHT22;17574;49.418;11.038;2023-04-25T23:39:22;7.70;20.10
30865;DHT22;17574;49.418;11.038;2023-04-25T23:41:49;7.60;20.50
30865;DHT22;17574;49.418;11.038;2023-04-25T23:44:16;7.60;18.50
30865;DHT22;17574;49.418;11.038;2023-04-25T23:46:43;7.60;19.60
30865;DHT22;17574;49.418;11.038;2023-04-25T23:49:09;7.50;18.40
30865;DHT22;17574;49.418;11.038;2023-04-25T23:51:36;7.50;18.30
30865;DHT22;17574;49.418;11.038;2023-04-25T23:54:03;7.50;19.60
30865;DHT22;17574;49.418;11.038;2023-04-25T23:56:30;7.40;18.80
30865;DHT22;17574;49.418;11.038;2023-04-25T23:58:57;7.30;20.50
